Date,TemperatureHighF,TemperatureAvgF,TemperatureLowF,DewpointHighF,DewpointAvgF,DewpointLowF,HumidityHigh,HumidityAvg,HumidityLow,PressureMaxIn,PressureMinIn,WindSpeedMaxMPH,WindSpeedAvgMPH,GustSpeedMaxMPH,PrecipitationSumIn
2013-2-5,60.0,53.4,48.0,51.5,48.6,45.3,97,84,71,30.04,29.96,14,3,24,0.00
2013-2-6,61.0,50.0,39.0,47.9,44.2,38.2,100,82,53,30.10,30.02,9,1,19,0.00
2013-2-7,58.0,50.0,42.0,50.7,44.2,35.3,100,83,44,30.07,29.93,11,1,15,0.10
2013-2-8,60.0,48.6,40.0,44.6,41.5,34.9,100,79,47,29.95,29.87,12,2,18,0.00
2013-2-9,63.0,50.8,40.0,39.6,34.6,29.2,84,56,31,30.05,29.90,9,1,37,0.00
2013-2-10,63.0,48.3,35.0,47.1,38.0,32.1,92,70,41,30.06,30.01,11,1,19,0.00
2013-2-11,69.0,55.8,43.0,46.0,35.7,29.3,88,50,25,30.18,30.02,6,0,37,0.00
2013-2-12,64.0,51.6,39.0,50.5,45.0,37.7,100,81,45,30.29,30.15,5,0,9,0.00
2013-2-13,65.0,51.2,39.0,52.7,46.0,39.0,100,85,47,30.23,30.17,8,1,13,0.00
2013-2-14,72.0,54.9,41.0,53.0,45.7,41.0,100,75,37,30.19,30.12,5,0,32,0.00
2013-2-15,72.0,56.6,44.0,49.4,46.5,42.3,97,72,41,30.24,30.13,6,0,10,0.00
2013-2-16,71.0,55.6,45.0,51.1,47.3,41.9,96,77,35,30.18,30.00,10,1,16,0.00
2013-2-17,66.0,54.3,43.0,50.2,47.0,42.1,100,79,48,30.02,29.94,10,0,28,0.00
2013-2-18,58.0,50.2,41.0,49.7,44.3,40.7,100,81,59,30.01,29.91,11,2,23,0.00
2013-2-19,54.0,48.5,41.0,48.2,42.1,35.8,97,79,52,29.91,29.73,19,2,27,0.14
2013-2-20,63.0,50.3,40.0,45.2,40.2,34.7,90,70,43,29.98,29.77,16,4,20,0.00
2013-2-21,65.0,53.2,42.0,45.6,40.1,32.7,88,64,33,30.08,29.94,13,2,22,0.00
2013-2-22,66.0,52.6,39.0,48.6,44.0,37.7,97,75,39,30.14,30.06,18,2,20,0.00
2013-2-23,63.0,54.1,48.0,51.0,42.0,32.4,96,66,35,30.14,30.05,15,5,21,0.00
2013-2-24,67.0,55.3,44.0,40.5,32.2,23.5,81,44,20,30.18,30.08,11,1,16,0.00
2013-2-25,69.0,53.0,41.0,48.9,44.0,39.4,97,74,41,30.19,30.12,13,1,17,0.00
2013-2-26,61.0,47.3,40.0,43.1,38.3,31.3,87,73,34,30.14,30.09,0,0,3,0.00
2013-2-27,71.0,58.4,40.0,50.6,44.4,36.6,93,64,32,30.28,30.13,13,1,37,0.00
2013-2-28,70.0,63.5,53.0,56.8,54.1,49.6,92,73,59,30.33,30.27,10,5,13,0.00